sensor_id;sensor_type;location;lat;lon;timestamp;P1;P2;P0
77239;PMS7003;66258;53.170;-2.240;2023-03-01T00:01:39;11.00;11.00;10.00
77239;PMS7003;66258;53.170;-2.240;2023-03-01T00:04:06;8.75;8.75;8.50
77239;PMS7003;66258;53.170;-2.240;2023-03-01T00:06:34;7.75;7.75;7.75
77239;PMS7003;66258;53.170;-2.240;2023-03-01T00:09:04;2.25;2.25;2.25
77239;PMS7003;66258;53.170;-2.240;2023-03-01T00:11:32;3.75;3.75;3.75
77239;PMS7003;66258;53.170;-2.240;2023-03-01T00:14:01;5.00;5.00;5.00
77239;PMS7003;66258;53.170;-2.240;2023-03-01T00:16:29;2.75;2.75;2.75
77239;PMS7003;66258;53.170;-2.240;2023-03-01T00:18:59;5.50;5.50;4.75
77239;PMS7003;66258;53.170;-2.240;2023-03-01T00:21:26;13.00;13.00;12.25
77239;PMS7003;66258;53.170;-2.240;2023-03-01T00:23:54;12.25;12.25;11.75
77239;PMS7003;66258;53.170;-2.240;2023-03-01T00:26:22;15.75;15.75;15.00
77239;PMS7003;66258;53.170;-2.240;2023-03-01T00:28:50;29.25;28.75;26.25
77239;PMS7003;66258;53.170;-2.240;2023-03-01T00:31:20;22.00;22.00;21.75
77239;PMS7003;66258;53.170;-2.240;2023-03-01T00:33:48;23.00;23.00;22.50
77239;PMS7003;66258;53.170;-2.240;2023-03-01T00:36:15;35.50;35.00;30.50
77239;PMS7003;66258;53.170;-2.240;2023-03-01T00:38:43;14.25;14.25;14.25
77239;PMS7003;66258;53.170;-2.240;2023-03-01T00:41:12;35.25;34.00;30.25
77239;PMS7003;66258;53.170;-2.240;2023-03-01T00:43:40;31.00;30.75;27.50
77239;PMS7003;66258;53.170;-2.240;2023-03-01T00:46:08;6.25;6.25;6.25
77239;PMS7003;66258;53.170;-2.240;2023-03-01T00:48:38;15.25;15.25;15.25
77239;PMS7003;66258;53.170;-2.240;2023-03-01T00:51:06;60.00;51.75;43.25
77239;PMS7003;66258;53.170;-2.240;2023-03-01T00:53:35;18.50;18.50;18.25
77239;PMS7003;66258;53.170;-2.240;2023-03-01T00:56:04;24.25;24.25;23.50
77239;PMS7003;66258;53.170;-2.240;2023-03-01T00:58:33;19.50;19.50;19.25
77239;PMS7003;66258;53.170;-2.240;2023-03-01T01:01:01;4.50;4.50;4.50
77239;PMS7003;66258;53.170;-2.240;2023-03-01T01:03:34;17.75;17.75;17.75
77239;PMS7003;66258;53.170;-2.240;2023-03-01T01:06:03;21.25;21.25;21.25
77239;PMS7003;66258;53.170;-2.240;2023-03-01T01:08:30;12.25;12.25;12.25
77239;PMS7003;66258;53.170;-2.240;2023-03-01T01:10:57;21.50;21.50;20.50
77239;PMS7003;66258;53.170;-2.240;2023-03-01T01:13:24;22.75;22.75;22.50
77239;PMS7003;66258;53.170;-2.240;2023-03-01T01:15:50;8.00;8.00;8.00
77239;PMS7003;66258;53.170;-2.240;2023-03-01T01:18:18;27.25;27.25;26.25
77239;PMS7003;66258;53.170;-2.240;2023-03-01T01:20:45;13.50;13.50;13.50
77239;PMS7003;66258;53.170;-2.240;2023-03-01T01:23:13;30.00;30.00;27.75
77239;PMS7003;66258;53.170;-2.240;2023-03-01T01:25:40;8.75;8.75;8.75
77239;PMS7003;66258;53.170;-2.240;2023-03-01T01:28:07;6.00;6.00;5.75
77239;PMS7003;66258;53.170;-2.240;2023-03-01T01:30:34;20.00;20.00;20.00
77239;PMS7003;66258;53.170;-2.240;2023-03-01T01:33:01;4.75;4.75;3.75
77239;PMS7003;66258;53.170;-2.240;2023-03-01T01:35:28;14.00;14.00;14.00
77239;PMS7003;66258;53.170;-2.240;2023-03-01T01:37:56;3.25;3.25;3.25
77239;PMS7003;66258;53.170;-2.240;2023-03-01T01:40:24;16.25;16.25;16.25
77239;PMS7003;66258;53.170;-2.240;2023-03-01T01:42:51;1.50;1.50;1.50
77239;PMS7003;66258;53.170;-2.240;2023-03-01T01:45:26;3.50;3.50;3.50
77239;PMS7003;66258;53.170;-2.240;2023-03-01T01:47:57;9.50;9.50;9.50
77239;PMS7003;66258;53.170;-2.240;2023-03-01T01:50:27;4.75;4.75;4.50
77239;PMS7003;66258;53.170;-2.240;2023-03-01T01:52:54;17.25;17.25;16.50
77239;PMS7003;66258;53.170;-2.240;2023-03-01T01:55:21;5.50;5.50;4.25
77239;PMS7003;66258;53.170;-2.240;2023-03-01T01:57:53;9.50;9.50;9.50
77239;PMS7003;66258;53.170;-2.240;2023-03-01T02:00:25;23.50;23.25;21.75
77239;PMS7003;66258;53.170;-2.240;2023-03-01T02:02:54;22.75;22.75;22.75
77239;PMS7003;66258;53.170;-2.240;2023-03-01T02:05:26;0.00;0.00;0.00
77239;PMS7003;66258;53.170;-2.240;2023-03-01T02:08:02;0.00;0.00;0.00
77239;PMS7003;66258;53.170;-2.240;2023-03-01T02:10:31;2.50;2.50;2.50
77239;PMS7003;66258;53.170;-2.240;2023-03-01T02:12:59;0.00;0.00;0.00
77239;PMS7003;66258;53.170;-2.240;2023-03-01T02:15:27;0.00;0.00;0.00
77239;PMS7003;66258;53.170;-2.240;2023-03-01T02:17:58;1.00;1.00;0.50
77239;PMS7003;66258;53.170;-2.240;2023-03-01T02:20:28;0.25;0.25;0.00
77239;PMS7003;66258;53.170;-2.240;2023-03-01T02:23:03;0.00;0.00;0.00
77239;PMS7003;66258;53.170;-2.240;2023-03-01T02:25:33;0.00;0.00;0.00
77239;PMS7003;66258;53.170;-2.240;2023-03-01T02:28:08;2.25;2.25;2.00
77239;PMS7003;66258;53.170;-2.240;2023-03-01T02:30:39;0.25;0.25;0.00
77239;PMS7003;66258;53.170;-2.240;2023-03-01T02:33:06;0.00;0.00;0.00
77239;PMS7003;66258;53.170;-2.240;2023-03-01T02:35:35;0.00;0.00;0.00
77239;PMS7003;66258;53.170;-2.240;2023-03-01T02:38:06;0.00;0.00;0.00
77239;PMS7003;66258;53.170;-2.240;2023-03-01T02:40:35;0.00;0.00;0.00
77239;PMS7003;66258;53.170;-2.240;2023-03-01T02:43:04;0.00;0.00;0.00
77239;PMS7003;66258;53.170;-2.240;2023-03-01T02:45:35;0.00;0.00;0.00
77239;PMS7003;66258;53.170;-2.240;2023-03-01T02:48:04;0.00;0.00;0.00
77239;PMS7003;66258;53.170;-2.240;2023-03-01T02:50:41;0.00;0.00;0.00
77239;PMS7003;66258;53.170;-2.240;2023-03-01T02:53:21;0.00;0.00;0.00
77239;PMS7003;66258;53.170;-2.240;2023-03-01T02:55:54;0.00;0.00;0.00
77239;PMS7003;66258;53.170;-2.240;2023-03-01T02:58:22;6.25;6.25;6.25
77239;PMS7003;66258;53.170;-2.240;2023-03-01T03:00:48;17.00;17.00;16.75
77239;PMS7003;66258;53.170;-2.240;2023-03-01T03:03:19;10.75;10.75;10.75
77239;PMS7003;66258;53.170;-2.240;2023-03-01T03:05:47;29.50;29.25;26.50
77239;PMS7003;66258;53.170;-2.240;2023-03-01T03:08:14;26.50;26.50;25.25
77239;PMS7003;66258;53.170;-2.240;2023-03-01T03:10:42;41.00;39.50;33.75
77239;PMS7003;66258;53.170;-2.240;2023-03-01T03:13:09;29.25;29.25;26.50
77239;PMS7003;66258;53.170;-2.240;2023-03-01T03:15:37;32.00;31.75;28.50
77239;PMS7003;66258;53.170;-2.240;2023-03-01T03:18:06;37.75;36.50;31.25
77239;PMS7003;66258;53.170;-2.240;2023-03-01T03:20:37;35.00;34.75;30.00
77239;PMS7003;66258;53.170;-2.240;2023-03-01T03:23:06;3.00;3.00;3.00
77239;PMS7003;66258;53.170;-2.240;2023-03-01T03:25:33;40.00;37.75;32.50
77239;PMS7003;66258;53.170;-2.240;2023-03-01T03:28:00;27.50;27.50;25.75
77239;PMS7003;66258;53.170;-2.240;2023-03-01T03:30:27;51.25;45.75;38.00
77239;PMS7003;66258;53.170;-2.240;2023-03-01T03:32:56;33.75;32.50;29.00
77239;PMS7003;66258;53.170;-2.240;2023-03-01T03:35:27;2.00;2.00;2.00
77239;PMS7003;66258;53.170;-2.240;2023-03-01T03:37:58;6.50;6.50;6.50
77239;PMS7003;66258;53.170;-2.240;2023-03-01T03:40:26;56.00;48.75;40.25
77239;PMS7003;66258;53.170;-2.240;2023-03-01T03:42:54;28.50;28.50;25.50
77239;PMS7003;66258;53.170;-2.240;2023-03-01T03:45:22;14.75;14.75;14.75
77239;PMS7003;66258;53.170;-2.240;2023-03-01T03:47:49;28.75;28.25;25.75
77239;PMS7003;66258;53.170;-2.240;2023-03-01T03:50:16;27.75;27.75;26.00
77239;PMS7003;66258;53.170;-2.240;2023-03-01T03:52:44;23.75;23.75;22.75
77239;PMS7003;66258;53.170;-2.240;2023-03-01T03:55:13;46.50;42.50;36.00
77239;PMS7003;66258;53.170;-2.240;2023-03-01T03:57:40;49.50;44.75;37.50
77239;PMS7003;66258;53.170;-2.240;2023-03-01T04:00:08;39.50;38.00;33.00
77239;PMS7003;66258;53.170;-2.240;2023-03-01T04:02:38;15.25;15.25;14.25
77239;PMS7003;66258;53.170;-2.240;2023-03-01T04:05:06;10.00;10.00;10.00
77239;PMS7003;66258;53.170;-2.240;2023-03-01T04:07:34;12.75;12.75;12.75
77239;PMS7003;66258;53.170;-2.240;2023-03-01T04:10:05;18.50;18.50;18.50
77239;PMS7003;66258;53.170;-2.240;2023-03-01T04:12:35;33.75;32.25;28.50
77239;PMS7003;66258;53.170;-2.240;2023-03-01T04:15:03;12.25;12.25;12.00
77239;PMS7003;66258;53.170;-2.240;2023-03-01T04:17:31;36.00;34.50;30.00
77239;PMS7003;66258;53.170;-2.240;2023-03-01T04:19:58;12.75;12.75;12.75
77239;PMS7003;66258;53.170;-2.240;2023-03-01T04:22:25;28.25;27.25;24.00
77239;PMS7003;66258;53.170;-2.240;2023-03-01T04:24:52;3.50;3.50;3.50
77239;PMS7003;66258;53.170;-2.240;2023-03-01T04:27:19;8.75;8.75;8.75
77239;PMS7003;66258;53.170;-2.240;2023-03-01T04:29:48;1.25;1.25;1.25
77239;PMS7003;66258;53.170;-2.240;2023-03-01T04:32:14;0.25;0.25;0.25
77239;PMS7003;66258;53.170;-2.240;2023-03-01T04:34:41;0.00;0.00;0.00
77239;PMS7003;66258;53.170;-2.240;2023-03-01T04:37:08;0.25;0.25;0.25
77239;PMS7003;66258;53.170;-2.240;2023-03-01T04:39:35;0.00;0.00;0.00
77239;PMS7003;66258;53.170;-2.240;2023-03-01T04:42:02;0.00;0.00;0.00
77239;PMS7003;66258;53.170;-2.240;2023-03-01T04:44:29;0.00;0.00;0.00
77239;PMS7003;66258;53.170;-2.240;2023-03-01T04:46:57;0.75;0.75;0.00
77239;PMS7003;66258;53.170;-2.240;2023-03-01T04:49:24;0.00;0.00;0.00
77239;PMS7003;66258;53.170;-2.240;2023-03-01T04:51:51;0.00;0.00;0.00
77239;PMS7003;66258;53.170;-2.240;2023-03-01T04:54:18;1.00;1.00;1.00
77239;PMS7003;66258;53.170;-2.240;2023-03-01T04:56:45;0.50;0.50;0.50
77239;PMS7003;66258;53.170;-2.240;2023-03-01T04:59:12;0.00;0.00;0.00
77239;PMS7003;66258;53.170;-2.240;2023-03-01T05:01:39;1.00;1.00;0.00
77239;PMS7003;66258;53.170;-2.240;2023-03-01T05:04:08;1.00;1.00;0.25
77239;PMS7003;66258;53.170;-2.240;2023-03-01T05:06:35;0.00;0.00;0.00
77239;PMS7003;66258;53.170;-2.240;2023-03-01T05:09:02;0.00;0.00;0.00
77239;PMS7003;66258;53.170;-2.240;2023-03-01T05:11:29;0.75;0.75;0.75
77239;PMS7003;66258;53.170;-2.240;2023-03-01T05:13:56;0.00;0.00;0.00
77239;PMS7003;66258;53.170;-2.240;2023-03-01T05:16:23;1.00;1.00;0.50
77239;PMS7003;66258;53.170;-2.240;2023-03-01T05:18:50;1.00;1.00;1.00
77239;PMS7003;66258;53.170;-2.240;2023-03-01T05:21:18;1.00;1.00;1.00
77239;PMS7003;66258;53.170;-2.240;2023-03-01T05:23:45;0.00;0.00;0.00
77239;PMS7003;66258;53.170;-2.240;2023-03-01T05:26:12;1.00;1.00;0.25
77239;PMS7003;66258;53.170;-2.240;2023-03-01T05:29:00;0.00;0.00;0.00
77239;PMS7003;66258;53.170;-2.240;2023-03-01T05:31:28;1.00;1.00;1.00
77239;PMS7003;66258;53.170;-2.240;2023-03-01T05:33:55;1.00;1.00;0.00
77239;PMS7003;66258;53.170;-2.240;2023-03-01T05:36:23;0.00;0.00;0.00
77239;PMS7003;66258;53.170;-2.240;2023-03-01T05:38:50;0.00;0.00;0.00
77239;PMS7003;66258;53.170;-2.240;2023-03-01T05:41:17;0.50;0.50;0.50
77239;PMS7003;66258;53.170;-2.240;2023-03-01T05:43:44;0.75;0.75;0.75
77239;PMS7003;66258;53.170;-2.240;2023-03-01T05:46:10;0.00;0.00;0.00
77239;PMS7003;66258;53.170;-2.240;2023-03-01T05:48:37;1.00;1.00;1.00
77239;PMS7003;66258;53.170;-2.240;2023-03-01T05:51:04;0.00;0.00;0.00
77239;PMS7003;66258;53.170;-2.240;2023-03-01T05:53:32;0.00;0.00;0.00
77239;PMS7003;66258;53.170;-2.240;2023-03-01T05:55:59;0.00;0.00;0.00
77239;PMS7003;66258;53.170;-2.240;2023-03-01T05:58:29;0.00;0.00;0.00
77239;PMS7003;66258;53.170;-2.240;2023-03-01T06:00:56;0.00;0.00;0.00
77239;PMS7003;66258;53.170;-2.240;2023-03-01T06:03:22;0.00;0.00;0.00
77239;PMS7003;66258;53.170;-2.240;2023-03-01T06:05:49;0.00;0.00;0.00
77239;PMS7003;66258;53.170;-2.240;2023-03-01T06:08:22;2.50;2.50;2.50
77239;PMS7003;66258;53.170;-2.240;2023-03-01T06:10:51;1.50;1.50;1.00
77239;PMS7003;66258;53.170;-2.240;2023-03-01T06:13:18;0.75;0.75;0.50
77239;PMS7003;66258;53.170;-2.240;2023-03-01T06:15:45;0.75;0.75;0.25
77239;PMS7003;66258;53.170;-2.240;2023-03-01T06:18:12;0.00;0.00;0.00
77239;PMS7003;66258;53.170;-2.240;2023-03-01T06:20:38;1.00;1.00;1.00
77239;PMS7003;66258;53.170;-2.240;2023-03-01T06:23:07;1.00;1.00;1.00
77239;PMS7003;66258;53.170;-2.240;2023-03-01T06:25:36;0.25;0.25;0.25
77239;PMS7003;66258;53.170;-2.240;2023-03-01T06:28:05;0.00;0.00;0.00
77239;PMS7003;66258;53.170;-2.240;2023-03-01T06:30:32;0.00;0.00;0.00
77239;PMS7003;66258;53.170;-2.240;2023-03-01T06:32:59;0.00;0.00;0.00
77239;PMS7003;66258;53.170;-2.240;2023-03-01T06:35:26;0.00;0.00;0.00
77239;PMS7003;66258;53.170;-2.240;2023-03-01T06:37:53;1.00;1.00;1.00
77239;PMS7003;66258;53.170;-2.240;2023-03-01T06:40:20;7.00;4.50;2.00
77239;PMS7003;66258;53.170;-2.240;2023-03-01T06:42:49;1.00;1.00;0.00
77239;PMS7003;66258;53.170;-2.240;2023-03-01T06:45:18;1.00;1.00;1.00
77239;PMS7003;66258;53.170;-2.240;2023-03-01T06:47:46;0.00;0.00;0.00
77239;PMS7003;66258;53.170;-2.240;2023-03-01T06:50:14;1.25;1.25;1.25
77239;PMS7003;66258;53.170;-2.240;2023-03-01T06:52:41;2.75;2.75;1.50
77239;PMS7003;66258;53.170;-2.240;2023-03-01T06:55:08;0.00;0.00;0.00
77239;PMS7003;66258;53.170;-2.240;2023-03-01T06:57:35;1.00;1.00;0.00
77239;PMS7003;66258;53.170;-2.240;2023-03-01T07:00:02;1.00;1.00;1.00
77239;PMS7003;66258;53.170;-2.240;2023-03-01T07:02:30;0.00;0.00;0.00
77239;PMS7003;66258;53.170;-2.240;2023-03-01T07:04:57;1.00;1.00;1.00
77239;PMS7003;66258;53.170;-2.240;2023-03-01T07:07:24;3.00;3.00;2.00
77239;PMS7003;66258;53.170;-2.240;2023-03-01T07:09:51;1.00;1.00;1.00
77239;PMS7003;66258;53.170;-2.240;2023-03-01T07:12:17;1.00;1.00;0.25
77239;PMS7003;66258;53.170;-2.240;2023-03-01T07:14:44;0.25;0.25;0.00
77239;PMS7003;66258;53.170;-2.240;2023-03-01T07:17:11;1.00;1.00;1.00
77239;PMS7003;66258;53.170;-2.240;2023-03-01T07:19:39;0.75;0.75;0.75
77239;PMS7003;66258;53.170;-2.240;2023-03-01T07:22:06;2.00;2.00;1.00
77239;PMS7003;66258;53.170;-2.240;2023-03-01T07:24:33;0.75;0.75;0.50
77239;PMS7003;66258;53.170;-2.240;2023-03-01T07:26:59;1.50;1.50;1.50
77239;PMS7003;66258;53.170;-2.240;2023-03-01T07:29:26;1.00;1.00;1.00
77239;PMS7003;66258;53.170;-2.240;2023-03-01T07:31:53;0.50;0.50;0.00
77239;PMS7003;66258;53.170;-2.240;2023-03-01T07:34:20;1.50;1.50;0.25
77239;PMS7003;66258;53.170;-2.240;2023-03-01T07:36:48;0.75;0.75;0.00
77239;PMS7003;66258;53.170;-2.240;2023-03-01T07:39:15;0.00;0.00;0.00
77239;PMS7003;66258;53.170;-2.240;2023-03-01T07:41:43;1.00;1.00;0.00
77239;PMS7003;66258;53.170;-2.240;2023-03-01T07:44:10;1.25;1.25;1.25
77239;PMS7003;66258;53.170;-2.240;2023-03-01T07:46:37;0.75;0.75;0.00
77239;PMS7003;66258;53.170;-2.240;2023-03-01T07:49:04;1.00;1.00;1.00
77239;PMS7003;66258;53.170;-2.240;2023-03-01T07:51:31;0.75;0.75;0.75
77239;PMS7003;66258;53.170;-2.240;2023-03-01T07:53:59;1.00;1.00;0.00
77239;PMS7003;66258;53.170;-2.240;2023-03-01T07:56:26;0.00;0.00;0.00
77239;PMS7003;66258;53.170;-2.240;2023-03-01T07:58:52;0.00;0.00;0.00
77239;PMS7003;66258;53.170;-2.240;2023-03-01T08:01:20;0.00;0.00;0.00
77239;PMS7003;66258;53.170;-2.240;2023-03-01T08:03:47;1.00;1.00;1.00
77239;PMS7003;66258;53.170;-2.240;2023-03-01T08:06:16;2.25;2.25;2.25
77239;PMS7003;66258;53.170;-2.240;2023-03-01T08:08:43;4.75;4.75;3.00
77239;PMS7003;66258;53.170;-2.240;2023-03-01T08:11:12;2.75;2.75;2.75
77239;PMS7003;66258;53.170;-2.240;2023-03-01T08:13:41;9.00;9.00;8.75
77239;PMS7003;66258;53.170;-2.240;2023-03-01T08:16:10;2.00;2.00;2.00
77239;PMS7003;66258;53.170;-2.240;2023-03-01T08:18:38;2.00;2.00;2.00
77239;PMS7003;66258;53.170;-2.240;2023-03-01T08:21:06;4.50;4.50;4.25
77239;PMS7003;66258;53.170;-2.240;2023-03-01T08:23:34;10.00;10.00;10.00
77239;PMS7003;66258;53.170;-2.240;2023-03-01T08:26:05;27.00;26.75;23.75
77239;PMS7003;66258;53.170;-2.240;2023-03-01T08:28:35;54.75;47.50;38.75
77239;PMS7003;66258;53.170;-2.240;2023-03-01T08:31:02;32.00;32.00;28.75
77239;PMS7003;66258;53.170;-2.240;2023-03-01T08:33:38;17.25;17.25;16.75
77239;PMS7003;66258;53.170;-2.240;2023-03-01T08:36:05;5.00;5.00;5.00
77239;PMS7003;66258;53.170;-2.240;2023-03-01T08:38:33;3.25;3.25;3.25
77239;PMS7003;66258;53.170;-2.240;2023-03-01T08:41:00;2.75;2.75;2.00
77239;PMS7003;66258;53.170;-2.240;2023-03-01T08:43:27;6.75;6.75;6.50
77239;PMS7003;66258;53.170;-2.240;2023-03-01T08:45:56;2.00;2.00;2.00
77239;PMS7003;66258;53.170;-2.240;2023-03-01T08:48:23;2.25;2.25;2.25
77239;PMS7003;66258;53.170;-2.240;2023-03-01T08:50:50;2.50;2.50;2.25
77239;PMS7003;66258;53.170;-2.240;2023-03-01T08:53:17;3.75;3.75;3.75
77239;PMS7003;66258;53.170;-2.240;2023-03-01T08:55:43;2.00;2.00;2.00
77239;PMS7003;66258;53.170;-2.240;2023-03-01T08:58:10;0.00;0.00;0.00
77239;PMS7003;66258;53.170;-2.240;2023-03-01T09:00:37;0.00;0.00;0.00
77239;PMS7003;66258;53.170;-2.240;2023-03-01T09:03:06;0.25;0.25;0.00
77239;PMS7003;66258;53.170;-2.240;2023-03-01T09:05:33;0.25;0.25;0.25
77239;PMS7003;66258;53.170;-2.240;2023-03-01T09:08:00;0.50;0.50;0.00
77239;PMS7003;66258;53.170;-2.240;2023-03-01T09:10:26;0.00;0.00;0.00
77239;PMS7003;66258;53.170;-2.240;2023-03-01T09:12:53;1.00;1.00;1.00
77239;PMS7003;66258;53.170;-2.240;2023-03-01T09:15:20;0.75;0.75;0.00
77239;PMS7003;66258;53.170;-2.240;2023-03-01T09:17:47;1.00;1.00;0.00
77239;PMS7003;66258;53.170;-2.240;2023-03-01T09:20:16;3.75;3.75;3.75
77239;PMS7003;66258;53.170;-2.240;2023-03-01T09:22:43;0.00;0.00;0.00
77239;PMS7003;66258;53.170;-2.240;2023-03-01T09:25:09;2.25;2.25;1.50
77239;PMS7003;66258;53.170;-2.240;2023-03-01T09:27:36;1.00;1.00;1.00
77239;PMS7003;66258;53.170;-2.240;2023-03-01T09:30:03;2.50;2.50;2.50
77239;PMS7003;66258;53.170;-2.240;2023-03-01T09:32:30;16.50;16.50;16.50
77239;PMS7003;66258;53.170;-2.240;2023-03-01T09:34:58;1.75;1.75;1.75
77239;PMS7003;66258;53.170;-2.240;2023-03-01T09:37:26;4.00;4.00;4.00
77239;PMS7003;66258;53.170;-2.240;2023-03-01T09:39:53;4.00;4.00;4.00
77239;PMS7003;66258;53.170;-2.240;2023-03-01T09:42:20;5.75;5.75;5.75
77239;PMS7003;66258;53.170;-2.240;2023-03-01T09:44:48;8.00;8.00;7.75
77239;PMS7003;66258;53.170;-2.240;2023-03-01T09:47:18;6.50;6.50;4.75
77239;PMS7003;66258;53.170;-2.240;2023-03-01T09:49:49;1.25;1.25;1.25
77239;PMS7003;66258;53.170;-2.240;2023-03-01T09:52:23;3.25;3.25;3.25
77239;PMS7003;66258;53.170;-2.240;2023-03-01T09:54:57;1.00;1.00;1.00
77239;PMS7003;66258;53.170;-2.240;2023-03-01T09:57:26;0.25;0.25;0.00
77239;PMS7003;66258;53.170;-2.240;2023-03-01T10:00:09;0.75;0.75;0.75
77239;PMS7003;66258;53.170;-2.240;2023-03-01T10:02:47;3.25;3.25;3.00
77239;PMS7003;66258;53.170;-2.240;2023-03-01T10:05:29;2.25;2.25;2.00
77239;PMS7003;66258;53.170;-2.240;2023-03-01T10:11:12;2.00;2.00;2.00
77239;PMS7003;66258;53.170;-2.240;2023-03-01T10:13:50;3.00;3.00;2.50
77239;PMS7003;66258;53.170;-2.240;2023-03-01T10:16:22;1.75;1.75;1.00
77239;PMS7003;66258;53.170;-2.240;2023-03-01T10:18:55;0.00;0.00;0.00
77239;PMS7003;66258;53.170;-2.240;2023-03-01T10:21:26;0.50;0.50;0.50
77239;PMS7003;66258;53.170;-2.240;2023-03-01T10:23:55;1.00;1.00;1.00
77239;PMS7003;66258;53.170;-2.240;2023-03-01T10:26:38;0.75;0.75;0.75
77239;PMS7003;66258;53.170;-2.240;2023-03-01T10:29:13;1.25;1.25;1.25
77239;PMS7003;66258;53.170;-2.240;2023-03-01T10:31:42;0.00;0.00;0.00
77239;PMS7003;66258;53.170;-2.240;2023-03-01T10:34:12;0.00;0.00;0.00
77239;PMS7003;66258;53.170;-2.240;2023-03-01T10:36:42;0.00;0.00;0.00
77239;PMS7003;66258;53.170;-2.240;2023-03-01T10:39:15;0.00;0.00;0.00
77239;PMS7003;66258;53.170;-2.240;2023-03-01T10:41:51;0.00;0.00;0.00
77239;PMS7003;66258;53.170;-2.240;2023-03-01T10:44:34;0.25;0.25;0.25
77239;PMS7003;66258;53.170;-2.240;2023-03-01T10:47:13;0.00;0.00;0.00
77239;PMS7003;66258;53.170;-2.240;2023-03-01T10:49:53;0.75;0.75;0.50
77239;PMS7003;66258;53.170;-2.240;2023-03-01T10:52:25;0.00;0.00;0.00
77239;PMS7003;66258;53.170;-2.240;2023-03-01T10:54:56;0.67;0.67;0.67
77239;PMS7003;66258;53.170;-2.240;2023-03-01T10:57:29;1.00;1.00;1.00
77239;PMS7003;66258;53.170;-2.240;2023-03-01T11:02:48;0.67;0.67;0.00
77239;PMS7003;66258;53.170;-2.240;2023-03-01T11:05:19;0.00;0.00;0.00
77239;PMS7003;66258;53.170;-2.240;2023-03-01T11:07:48;1.25;1.25;1.25
77239;PMS7003;66258;53.170;-2.240;2023-03-01T11:10:18;0.00;0.00;0.00
77239;PMS7003;66258;53.170;-2.240;2023-03-01T11:12:47;0.00;0.00;0.00
77239;PMS7003;66258;53.170;-2.240;2023-03-01T11:15:21;2.00;2.00;2.00
77239;PMS7003;66258;53.170;-2.240;2023-03-01T11:17:50;4.00;4.00;3.00
77239;PMS7003;66258;53.170;-2.240;2023-03-01T11:20:25;4.25;4.25;4.00
77239;PMS7003;66258;53.170;-2.240;2023-03-01T11:22:56;27.25;27.25;24.25
77239;PMS7003;66258;53.170;-2.240;2023-03-01T11:25:29;3.50;3.50;3.50
77239;PMS7003;66258;53.170;-2.240;2023-03-01T11:28:01;10.00;10.00;9.25
77239;PMS7003;66258;53.170;-2.240;2023-03-01T11:30:31;10.00;10.00;10.00
77239;PMS7003;66258;53.170;-2.240;2023-03-01T11:33:05;5.25;5.25;5.25
77239;PMS7003;66258;53.170;-2.240;2023-03-01T11:35:41;3.75;3.75;3.50
77239;PMS7003;66258;53.170;-2.240;2023-03-01T11:38:16;2.00;2.00;1.25
77239;PMS7003;66258;53.170;-2.240;2023-03-01T11:40:49;0.00;0.00;0.00
77239;PMS7003;66258;53.170;-2.240;2023-03-01T11:43:23;0.00;0.00;0.00
77239;PMS7003;66258;53.170;-2.240;2023-03-01T11:48:58;0.00;0.00;0.00
77239;PMS7003;66258;53.170;-2.240;2023-03-01T11:51:42;1.50;1.50;1.50
77239;PMS7003;66258;53.170;-2.240;2023-03-01T11:54:24;1.00;1.00;1.00
77239;PMS7003;66258;53.170;-2.240;2023-03-01T11:57:03;2.25;2.25;2.00
77239;PMS7003;66258;53.170;-2.240;2023-03-01T11:59:51;3.00;3.00;3.00
77239;PMS7003;66258;53.170;-2.240;2023-03-01T12:05:51;4.00;4.00;3.75
77239;PMS7003;66258;53.170;-2.240;2023-03-01T12:08:30;6.75;6.75;6.75
77239;PMS7003;66258;53.170;-2.240;2023-03-01T12:11:06;21.00;21.00;20.75
77239;PMS7003;66258;53.170;-2.240;2023-03-01T12:17:02;11.25;11.25;10.25
77239;PMS7003;66258;53.170;-2.240;2023-03-01T12:19:42;20.25;20.25;19.75
77239;PMS7003;66258;53.170;-2.240;2023-03-01T12:22:28;0.00;0.00;0.00
77239;PMS7003;66258;53.170;-2.240;2023-03-01T12:27:57;4.50;4.50;4.25
77239;PMS7003;66258;53.170;-2.240;2023-03-01T12:30:40;0.75;0.75;0.50
77239;PMS7003;66258;53.170;-2.240;2023-03-01T12:33:25;1.00;1.00;1.00
77239;PMS7003;66258;53.170;-2.240;2023-03-01T12:36:05;0.75;0.75;0.50
77239;PMS7003;66258;53.170;-2.240;2023-03-01T12:38:45;1.00;1.00;0.50
77239;PMS7003;66258;53.170;-2.240;2023-03-01T12:41:21;0.00;0.00;0.00
77239;PMS7003;66258;53.170;-2.240;2023-03-01T12:44:01;1.50;1.50;1.00
77239;PMS7003;66258;53.170;-2.240;2023-03-01T12:46:41;15.00;15.00;14.00
77239;PMS7003;66258;53.170;-2.240;2023-03-01T12:49:17;0.50;0.50;0.50
77239;PMS7003;66258;53.170;-2.240;2023-03-01T12:51:50;10.00;10.00;10.00
77239;PMS7003;66258;53.170;-2.240;2023-03-01T12:54:24;0.67;0.67;0.33
77239;PMS7003;66258;53.170;-2.240;2023-03-01T12:56:54;7.00;7.00;7.00
77239;PMS7003;66258;53.170;-2.240;2023-03-01T12:59:24;0.67;0.67;0.67
77239;PMS7003;66258;53.170;-2.240;2023-03-01T13:02:01;1.00;1.00;0.75
77239;PMS7003;66258;53.170;-2.240;2023-03-01T13:04:40;0.00;0.00;0.00
77239;PMS7003;66258;53.170;-2.240;2023-03-01T13:07:24;0.00;0.00;0.00
77239;PMS7003;66258;53.170;-2.240;2023-03-01T13:10:00;11.50;11.50;10.75
77239;PMS7003;66258;53.170;-2.240;2023-03-01T13:12:42;5.00;5.00;4.00
77239;PMS7003;66258;53.170;-2.240;2023-03-01T13:15:30;0.00;0.00;0.00
77239;PMS7003;66258;53.170;-2.240;2023-03-01T13:17:58;8.75;8.75;8.75
77239;PMS7003;66258;53.170;-2.240;2023-03-01T13:20:29;13.25;13.25;13.25
77239;PMS7003;66258;53.170;-2.240;2023-03-01T13:23:00;3.75;3.75;3.75
77239;PMS7003;66258;53.170;-2.240;2023-03-01T13:25:30;1.00;1.00;0.75
77239;PMS7003;66258;53.170;-2.240;2023-03-01T13:34:39;1.00;1.00;1.00
77239;PMS7003;66258;53.170;-2.240;2023-03-01T13:37:17;0.00;0.00;0.00
77239;PMS7003;66258;53.170;-2.240;2023-03-01T13:40:04;4.00;4.00;4.00
77239;PMS7003;66258;53.170;-2.240;2023-03-01T13:42:46;0.25;0.25;0.25
77239;PMS7003;66258;53.170;-2.240;2023-03-01T13:45:34;0.00;0.00;0.00
77239;PMS7003;66258;53.170;-2.240;2023-03-01T13:48:08;1.00;1.00;1.00
77239;PMS7003;66258;53.170;-2.240;2023-03-01T13:50:43;0.67;0.67;0.00
77239;PMS7003;66258;53.170;-2.240;2023-03-01T13:53:16;2.75;2.75;2.25
77239;PMS7003;66258;53.170;-2.240;2023-03-01T13:55:46;1.00;1.00;1.00
77239;PMS7003;66258;53.170;-2.240;2023-03-01T13:58:16;1.50;1.50;1.50
77239;PMS7003;66258;53.170;-2.240;2023-03-01T14:00:47;1.25;1.25;1.25
77239;PMS7003;66258;53.170;-2.240;2023-03-01T14:03:20;0.00;0.00;0.00
77239;PMS7003;66258;53.170;-2.240;2023-03-01T14:05:57;0.00;0.00;0.00
77239;PMS7003;66258;53.170;-2.240;2023-03-01T14:08:40;0.67;0.67;0.33
77239;PMS7003;66258;53.170;-2.240;2023-03-01T14:11:23;1.00;1.00;1.00
77239;PMS7003;66258;53.170;-2.240;2023-03-01T14:14:23;0.33;0.33;0.00
77239;PMS7003;66258;53.170;-2.240;2023-03-01T14:17:22;1.00;1.00;1.00
77239;PMS7003;66258;53.170;-2.240;2023-03-01T14:20:11;3.50;3.50;3.00
77239;PMS7003;66258;53.170;-2.240;2023-03-01T14:22:42;3.75;3.75;2.75
77239;PMS7003;66258;53.170;-2.240;2023-03-01T14:25:20;5.00;5.00;5.00
77239;PMS7003;66258;53.170;-2.240;2023-03-01T14:27:54;11.75;11.75;11.25
77239;PMS7003;66258;53.170;-2.240;2023-03-01T14:30:30;72.67;60.00;57.00
77239;PMS7003;66258;53.170;-2.240;2023-03-01T14:33:01;19.75;19.75;18.50
77239;PMS7003;66258;53.170;-2.240;2023-03-01T14:35:30;13.75;13.75;13.75
77239;PMS7003;66258;53.170;-2.240;2023-03-01T14:37:58;21.50;21.50;19.25
77239;PMS7003;66258;53.170;-2.240;2023-03-01T14:40:27;4.25;4.25;4.25
77239;PMS7003;66258;53.170;-2.240;2023-03-01T14:42:57;12.25;12.25;12.25
77239;PMS7003;66258;53.170;-2.240;2023-03-01T14:45:27;97.50;96.50;96.50